• pl
  • eng

Awiacja
NEWS
last updated: 12.09.2019 14:49<\/div>
Dear users,
We would like to inform you that from September 2nd a test form of the GAFOR forecast is available on our webpage. Please send your comments and suggestions to gafor@imgw.pl that will contribute to product development.
Click on the bold red name to decode a message. 23:31 14.11.2019
  • WIND
  • SIGNIFICANT EURO
  • SIGNIFICANT
  • SIGMET
  • AIRMET
  • TAF FC
  • TAF FT
  • METAR GG30
  • METAR GG00


METAR EPBY 142230Z 10008KT 9999 OVC012 04/02 Q1016 =

METAR EPGD 142230Z 09005KT 6000 SCT011 OVC013 02/02 Q1018 =

METAR EPKK 142230Z 06008KT 5000 BR OVC004 07/07 Q1013 =

METAR EPKT 142230Z 10008KT 9000 BKN003 OVC004 06/05 Q1013 =

METAR EPLB 142230Z 05005KT 0600 R25/0800 -DZ FG OVC002 08/08 Q1015 =

METAR EPLL 142230Z 08007KT 4400 BR OVC006 04/03 Q1015 =

METAR EPMO 142230Z 08009KT 8000 BKN007 BKN030 03/03 Q1016 =

METAR EPPO 142230Z 10013KT 9000 OVC009 04/02 Q1014 =

METAR EPRA 142230Z NIL=

METAR EPRZ 142230Z 04004KT 0400 R27/1200N -DZ FG OVC001 08/08 Q1014 =

METAR EPSC 142230Z 09011KT 9999 OVC010 04/01 Q1013 =

METAR EPSY 142230Z NIL=

METAR EPWA 142230Z 06008KT 9999 SCT008 BKN027 04/03 Q1016 BECMG
BKN008=

METAR EPWR 142230Z 11013KT 6000 BKN005 04/03 Q1012 =

METAR EPZG 142230Z NIL=
Awiacja.imgw.pl jest pogodowym serwisem informacyjnym
Instytutu Meteorologii i Gospodarki Wodnej Państwowego Instytutu Badawczego.
Copyright IMGW PIB 2009-2019© Wszelkie prawa zastrzeżone.